Terminal Aerodrome Forecast
Issued by NWS

Home | Current Version | Previous Version | Graphics & Text | Print | Product List | Glossary On
Versions: 1 2 3 4 5 6 7 8 9 10 11 12 13 14 15 16
000
FTUS43 KBIS 210527
TAFJMS
TAF
KJMS 210527Z 2106/2206 17009KT P6SM FEW110 FEW250
     FM210900 16010KT P6SM FEW110 SCT250 WS020/19045KT
     FM211500 17020G30KT P6SM FEW120 SCT200=

USA.gov is the U.S. government's official web portal to all federal, state and local government web resources and services.